X  Zatvori METAR podaci zračne luke     EDDM Munich Airport
Temperatura
86°F Temperatura
61°F Točka rosišta
43% Vlaga



Vjetar
5 MPS
8 KM/S
2 M/S
4 Čvorovi



310°
SZ
Trenutna situacija

Vedro Vedro
Tlak zraka 1014.9 (hPa) - 29.97 (inHg)
Vidljivost 6 (milje) - 9.7 (km)
Zračna luka
Kôd zračne luke EDDM

Lokacija: Munich Airport
Udaljenost: 73 (mi)

Metar:
EDDM 191650Z AUTO 31004KT 240V350 CAVOK 30/16 Q1015 NOSIG

Vrijeme: 19-06-2024 16:50 CEST